Time;durP1;ratioP1;P1;durP2;ratioP2;P2;SDS_P1;SDS_P2;PMS_P1;PMS_P2;Temp;Humidity;BMP_temperature;BMP_pressure;BME280_temperature;BME280_humidity;BME280_pressure;Samples;Min_cycle;Max_cycle;Signal;HPM_P1;HPM_P2
2021/03/23 00:01:37;;;;;;;24.33;11.10;;;2.90;87.70;;;;;;4425164;32;20194;-74
2021/03/23 00:04:05;;;;;;;27.13;11.53;;;2.90;87.60;;;;;;4425336;32;20151;-74
2021/03/23 00:06:32;;;;;;;26.27;10.80;;;2.90;87.70;;;;;;4425476;32;20159;-73
2021/03/23 00:09:00;;;;;;;27.87;11.07;;;3.00;88.00;;;;;;4423480;32;20155;-74
2021/03/23 00:11:34;;;;;;;25.73;10.83;;;2.90;87.90;;;;;;4424461;32;20164;-73
2021/03/23 00:14:03;;;;;;;25.03;10.50;;;2.90;88.00;;;;;;4425890;32;20143;-74
2021/03/23 00:19:58;;;;;;;23.67;10.60;;;2.60;89.10;;;;;;4425732;32;20146;-74
2021/03/23 00:22:24;;;;;;;27.03;10.90;;;2.60;89.40;;;;;;4424920;32;20134;-73
2021/03/23 00:24:51;;;;;;;26.47;11.07;;;2.70;89.20;;;;;;4425768;32;20275;-74
2021/03/23 00:27:17;;;;;;;23.93;10.77;;;2.80;89.20;;;;;;4424241;32;20143;-74
2021/03/23 00:29:46;;;;;;;24.70;10.90;;;2.90;89.30;;;;;;4424296;32;20159;-74
2021/03/23 00:32:12;;;;;;;28.73;11.50;;;3.00;88.10;;;;;;4425323;32;20443;-74
2021/03/23 00:34:39;;;;;;;29.23;11.20;;;3.00;88.00;;;;;;4424386;32;20222;-73
2021/03/23 00:37:05;;;;;;;27.33;10.83;;;3.00;87.90;;;;;;4424304;32;20155;-74
2021/03/23 00:39:32;;;;;;;26.10;10.67;;;3.00;88.00;;;;;;4424316;32;20201;-74
2021/03/23 00:41:58;;;;;;;24.93;10.40;;;3.00;87.80;;;;;;4424724;32;20147;-74
2021/03/23 00:44:25;;;;;;;23.27;10.03;;;3.00;87.80;;;;;;4427433;32;20162;-74
2021/03/23 00:46:51;;;;;;;26.53;10.60;;;3.00;87.80;;;;;;4427468;32;20165;-74
2021/03/23 00:49:18;;;;;;;27.67;10.87;;;3.00;87.60;;;;;;4427216;32;20155;-74
2021/03/23 00:51:44;;;;;;;25.73;10.20;;;3.10;87.20;;;;;;4427319;32;20163;-73
2021/03/23 00:54:11;;;;;;;23.50;10.53;;;3.10;87.10;;;;;;4427342;32;20190;-73
2021/03/23 00:56:37;;;;;;;27.23;10.50;;;3.10;87.00;;;;;;4426844;32;20485;-74
2021/03/23 00:59:03;;;;;;;23.67;10.03;;;3.10;86.90;;;;;;4427262;32;20221;-74
2021/03/23 01:01:30;;;;;;;25.90;10.60;;;3.10;87.50;;;;;;4427392;32;20192;-74
2021/03/23 01:04:14;;;;;;;22.63;10.50;;;3.10;86.70;;;;;;4428842;32;20146;-73
2021/03/23 01:06:40;;;;;;;24.47;9.93;;;3.10;87.00;;;;;;4427214;32;20189;-74
2021/03/23 01:09:06;;;;;;;24.67;10.10;;;3.10;87.10;;;;;;4427155;32;20226;-74
2021/03/23 01:11:33;;;;;;;23.50;10.03;;;3.00;87.60;;;;;;4427919;32;20147;-74
2021/03/23 01:13:59;;;;;;;25.47;10.17;;;2.90;87.80;;;;;;4428445;32;20154;-74
2021/03/23 01:16:26;;;;;;;23.47;10.53;;;2.80;88.60;;;;;;4427081;32;20497;-73
2021/03/23 01:18:53;;;;;;;23.77;10.03;;;2.90;88.70;;;;;;4427977;32;20173;-73
2021/03/23 01:21:19;;;;;;;23.97;10.33;;;2.90;88.80;;;;;;4427083;32;20188;-73
2021/03/23 01:23:45;;;;;;;23.47;9.87;;;2.80;88.70;;;;;;4427090;32;20220;-73
2021/03/23 01:26:12;;;;;;;23.33;10.10;;;2.90;88.80;;;;;;4428330;32;20169;-74
2021/03/23 01:28:38;;;;;;;23.60;9.80;;;2.90;89.10;;;;;;4426706;32;20230;-74
2021/03/23 01:31:05;;;;;;;20.77;10.13;;;3.00;88.50;;;;;;4427002;32;20143;-73
2021/03/23 01:33:31;;;;;;;24.07;10.10;;;2.90;88.40;;;;;;4426900;32;20189;-74
2021/03/23 01:35:58;;;;;;;24.70;10.53;;;3.00;88.90;;;;;;4426944;32;20147;-73
2021/03/23 01:38:25;;;;;;;21.90;9.50;;;3.00;88.60;;;;;;4426732;32;20143;-74
2021/03/23 01:40:51;;;;;;;21.63;9.60;;;2.90;88.60;;;;;;4426977;32;20147;-73
2021/03/23 01:43:30;;;;;;;20.97;9.97;;;2.90;89.20;;;;;;4426783;32;20165;-73
2021/03/23 01:45:58;;;;;;;29.73;10.07;;;2.90;89.20;;;;;;4425974;32;20224;-73
2021/03/23 01:48:29;;;;;;;21.97;9.83;;;2.90;89.30;;;;;;4426491;32;20200;-73
2021/03/23 01:50:59;;;;;;;22.43;9.90;;;2.90;89.20;;;;;;4428350;32;20167;-73
2021/03/23 01:53:36;;;;;;;24.80;9.97;;;2.90;90.00;;;;;;4426727;32;20171;-74
2021/03/23 01:56:05;;;;;;;24.43;10.00;;;2.90;89.80;;;;;;4428251;32;20147;-74
2021/03/23 01:58:36;;;;;;;23.43;10.33;;;2.80;89.60;;;;;;4426511;32;20140;-74
2021/03/23 02:01:04;;;;;;;26.30;10.10;;;2.80;90.00;;;;;;4428201;32;20218;-73
2021/03/23 02:03:30;;;;;;;27.80;10.63;;;2.90;89.90;;;;;;4426563;32;20146;-74
2021/03/23 02:05:59;;;;;;;23.70;9.87;;;3.00;89.50;;;;;;4427810;32;20504;-73
2021/03/23 02:08:26;;;;;;;26.03;10.83;;;3.00;89.20;;;;;;4426165;32;20285;-74
2021/03/23 02:10:54;;;;;;;25.70;10.23;;;3.00;89.20;;;;;;4427753;32;20161;-74
2021/03/23 02:13:22;;;;;;;22.77;10.10;;;2.90;89.70;;;;;;4426191;32;20197;-74
2021/03/23 02:15:49;;;;;;;23.07;10.07;;;2.80;89.70;;;;;;4426264;32;20196;-74
2021/03/23 02:18:25;;;;;;;26.33;10.03;;;2.80;89.80;;;;;;4426075;32;20143;-74
2021/03/23 02:21:08;;;;;;;22.43;9.57;;;2.90;89.40;;;;;;4427920;32;20155;-74
2021/03/23 02:23:55;;;;;;;23.40;10.17;;;2.80;89.40;;;;;;4427471;32;20173;-74
2021/03/23 02:26:28;;;;;;;26.33;9.90;;;2.80;89.10;;;;;;4427858;32;20147;-74
2021/03/23 02:28:58;;;;;;;20.33;9.53;;;2.80;89.20;;;;;;4425737;32;20163;-74
2021/03/23 02:31:38;;;;;;;22.13;9.07;;;2.90;89.20;;;;;;4425510;32;20155;-74
2021/03/23 02:34:11;;;;;;;19.73;8.67;;;2.90;89.20;;;;;;4427755;32;20386;-74
2021/03/23 02:36:39;;;;;;;19.93;8.77;;;2.90;89.00;;;;;;4425427;32;20173;-74
2021/03/23 02:39:08;;;;;;;21.67;9.33;;;2.90;89.20;;;;;;4425783;32;20329;-74
2021/03/23 02:41:36;;;;;;;21.40;9.63;;;2.90;89.10;;;;;;4425786;32;20147;-74
2021/03/23 02:44:03;;;;;;;19.73;8.93;;;2.80;89.00;;;;;;4425874;32;20385;-73
2021/03/23 02:46:30;;;;;;;19.57;8.87;;;2.80;89.30;;;;;;4426518;32;20441;-74
2021/03/23 02:48:56;;;;;;;19.97;8.10;;;2.90;89.30;;;;;;4425778;32;20174;-73
2021/03/23 02:51:23;;;;;;;25.00;9.70;;;2.90;89.60;;;;;;4426175;32;20170;-74
2021/03/23 02:53:50;;;;;;;18.90;8.57;;;2.90;89.00;;;;;;4425703;32;20155;-74
2021/03/23 02:56:17;;;;;;;20.57;8.83;;;2.90;88.70;;;;;;4426028;32;20187;-74
2021/03/23 02:58:45;;;;;;;20.20;8.93;;;2.90;88.70;;;;;;4426706;32;20151;-74
2021/03/23 03:01:13;;;;;;;22.03;8.90;;;2.90;88.70;;;;;;4425074;32;20174;-74
2021/03/23 03:03:39;;;;;;;19.67;8.53;;;3.00;88.20;;;;;;4425507;32;20185;-74
2021/03/23 03:06:07;;;;;;;18.37;7.97;;;2.90;88.00;;;;;;4425022;32;20242;-74
2021/03/23 03:08:34;;;;;;;20.30;7.87;;;3.00;88.10;;;;;;4425349;32;20147;-74
2021/03/23 03:11:01;;;;;;;18.23;7.90;;;3.00;87.90;;;;;;4426859;32;20474;-74
2021/03/23 03:13:32;;;;;;;16.23;7.97;;;2.90;87.90;;;;;;4426881;32;20143;-74
2021/03/23 03:16:00;;;;;;;15.73;7.90;;;3.00;87.60;;;;;;4425367;32;20211;-74
2021/03/23 03:18:27;;;;;;;18.60;7.53;;;3.00;87.80;;;;;;4424783;32;20186;-74
2021/03/23 03:20:58;;;;;;;15.27;7.37;;;2.90;87.40;;;;;;4426484;32;20162;-74
2021/03/23 03:23:25;;;;;;;15.53;7.00;;;2.90;87.20;;;;;;4425246;32;20143;-74
2021/03/23 03:25:52;;;;;;;19.33;8.20;;;2.90;87.00;;;;;;4425670;32;20162;-74
2021/03/23 03:28:19;;;;;;;15.67;7.30;;;3.00;87.20;;;;;;4425791;32;20195;-74
2021/03/23 03:30:46;;;;;;;15.03;6.70;;;3.00;86.90;;;;;;4425483;32;20155;-74
2021/03/23 03:33:15;;;;;;;17.57;7.03;;;3.00;86.60;;;;;;4427766;32;20167;-74
2021/03/23 03:35:44;;;;;;;18.33;7.07;;;3.00;86.80;;;;;;4426927;32;20221;-74
2021/03/23 03:38:10;;;;;;;18.97;7.17;;;2.90;87.00;;;;;;4425030;32;20138;-74
2021/03/23 03:40:44;;;;;;;17.80;7.30;;;2.90;86.80;;;;;;4425066;32;20158;-74
2021/03/23 03:43:14;;;;;;;15.07;5.90;;;3.00;86.40;;;;;;4425859;32;20224;-74
2021/03/23 03:45:41;;;;;;;17.57;6.93;;;2.90;86.90;;;;;;4425679;32;20164;-73
2021/03/23 03:48:07;;;;;;;15.53;7.00;;;3.00;86.30;;;;;;4426470;32;20385;-73
2021/03/23 03:50:35;;;;;;;14.13;6.43;;;2.90;86.80;;;;;;4426314;32;20488;-73
2021/03/23 03:53:02;;;;;;;17.40;7.00;;;3.00;86.60;;;;;;4424887;32;20151;-73
2021/03/23 03:55:32;;;;;;;15.47;6.60;;;3.00;86.50;;;;;;4425658;32;20200;-73
2021/03/23 03:57:58;;;;;;;13.40;6.37;;;3.00;86.60;;;;;;4424772;32;20171;-73
2021/03/23 04:00:28;;;;;;;15.90;6.50;;;3.00;86.50;;;;;;4424191;32;20147;-73
2021/03/23 04:02:55;;;;;;;14.03;6.53;;;3.00;86.30;;;;;;4424600;32;20134;-73
2021/03/23 04:05:28;;;;;;;13.13;5.80;;;3.00;85.90;;;;;;4424607;32;20487;-73
2021/03/23 04:07:55;;;;;;;11.90;5.87;;;3.10;86.00;;;;;;4426072;32;20166;-73
2021/03/23 04:10:22;;;;;;;16.43;6.77;;;3.00;86.30;;;;;;4424095;32;20143;-73
2021/03/23 04:12:49;;;;;;;15.53;6.77;;;3.00;86.20;;;;;;4424632;32;20154;-73
2021/03/23 04:15:37;;;;;;;15.17;6.00;;;3.10;86.00;;;;;;4424924;32;20183;-73
2021/03/23 04:18:05;;;;;;;14.40;6.17;;;3.00;86.00;;;;;;4426076;32;20170;-73
2021/03/23 04:20:32;;;;;;;16.23;6.57;;;2.90;86.50;;;;;;4424012;32;20196;-74
2021/03/23 04:23:00;;;;;;;12.97;6.10;;;2.90;86.60;;;;;;4425180;32;20465;-73
2021/03/23 04:25:29;;;;;;;15.80;6.43;;;3.00;86.50;;;;;;4424215;32;20225;-73
2021/03/23 04:27:56;;;;;;;14.23;6.43;;;2.90;86.90;;;;;;4425278;32;20159;-73
2021/03/23 04:30:24;;;;;;;15.37;6.53;;;2.90;87.00;;;;;;4424520;32;20393;-73
2021/03/23 04:32:53;;;;;;;13.20;6.17;;;2.90;87.80;;;;;;4424511;32;20391;-73
2021/03/23 04:35:26;;;;;;;15.37;6.20;;;2.90;87.70;;;;;;4425880;32;20523;-73
2021/03/23 04:37:54;;;;;;;15.07;6.53;;;2.90;87.70;;;;;;4425874;32;20171;-72
2021/03/23 04:40:21;;;;;;;16.23;6.60;;;2.90;87.80;;;;;;4425830;32;20139;-73
2021/03/23 04:42:48;;;;;;;13.73;6.03;;;2.90;88.10;;;;;;4423318;32;20189;-73
2021/03/23 04:45:15;;;;;;;16.87;6.80;;;2.90;88.50;;;;;;4424337;32;20461;-73
2021/03/23 04:47:42;;;;;;;15.43;6.60;;;2.80;88.70;;;;;;4423938;32;20212;-72
2021/03/23 04:50:09;;;;;;;13.20;6.27;;;2.70;89.40;;;;;;4424634;32;20166;-72
2021/03/23 04:52:35;;;;;;;15.97;6.50;;;2.80;89.50;;;;;;4424165;32;20484;-74
2021/03/23 04:55:03;;;;;;;19.53;7.10;;;2.80;89.50;;;;;;4425901;32;20167;-73
2021/03/23 04:57:29;;;;;;;16.07;6.80;;;2.80;89.60;;;;;;4424320;32;20151;-74
2021/03/23 04:59:56;;;;;;;14.73;6.00;;;2.70;90.00;;;;;;4424185;32;20147;-74
2021/03/23 05:02:22;;;;;;;13.83;6.90;;;2.80;90.00;;;;;;4422519;32;20422;-73
2021/03/23 05:04:49;;;;;;;15.27;6.67;;;2.60;90.30;;;;;;4424195;32;20170;-74
2021/03/23 05:07:23;;;;;;;15.00;6.67;;;2.70;90.30;;;;;;4425706;32;20147;-73
2021/03/23 05:09:50;;;;;;;15.67;6.93;;;2.70;90.50;;;;;;4423663;32;20519;-74
2021/03/23 05:12:17;;;;;;;15.97;6.50;;;2.80;90.30;;;;;;4425184;32;20541;-73
2021/03/23 05:14:46;;;;;;;14.67;6.77;;;2.90;90.30;;;;;;4423588;32;20427;-73
2021/03/23 05:17:14;;;;;;;16.83;6.93;;;2.90;90.10;;;;;;4423612;32;20178;-73
2021/03/23 05:19:40;;;;;;;14.63;6.60;;;2.90;90.00;;;;;;4425566;32;20143;-72
2021/03/23 05:22:07;;;;;;;13.57;6.77;;;2.90;90.20;;;;;;4424228;32;20166;-73
2021/03/23 05:24:33;;;;;;;14.23;6.50;;;2.90;90.00;;;;;;4425436;32;20162;-73
2021/03/23 05:26:59;;;;;;;14.03;6.23;;;3.00;89.90;;;;;;4424019;32;20143;-73
2021/03/23 05:29:26;;;;;;;17.30;7.17;;;3.00;90.10;;;;;;4424467;32;20163;-73
2021/03/23 05:31:52;;;;;;;15.57;6.23;;;3.00;90.00;;;;;;4427216;32;20139;-73
2021/03/23 05:34:19;;;;;;;17.23;6.83;;;3.00;90.00;;;;;;4426540;32;20546;-73
2021/03/23 05:36:45;;;;;;;15.27;6.47;;;3.00;90.20;;;;;;4426676;32;20147;-73
2021/03/23 05:39:12;;;;;;;15.17;6.93;;;3.00;90.10;;;;;;4426595;32;20162;-73
2021/03/23 05:42:02;;;;;;;16.60;7.00;;;3.00;90.20;;;;;;4428153;32;20496;-73
2021/03/23 05:44:54;;;;;;;17.00;6.30;;;3.10;89.90;;;;;;4428175;32;20146;-73
2021/03/23 05:47:28;;;;;;;15.63;6.10;;;3.20;89.50;;;;;;4428675;32;20444;-73
2021/03/23 05:50:24;;;;;;;12.20;6.07;;;3.20;89.00;;;;;;4426658;32;20201;-72
2021/03/23 05:53:10;;;;;;;17.33;6.43;;;3.10;89.20;;;;;;4428080;32;20140;-73
2021/03/23 05:55:42;;;;;;;13.77;6.03;;;3.20;89.30;;;;;;4428062;32;20225;-73
2021/03/23 05:58:25;;;;;;;14.90;6.37;;;3.30;88.60;;;;;;4426447;32;20156;-72
2021/03/23 06:01:01;;;;;;;15.07;6.40;;;3.10;88.80;;;;;;4427147;32;20442;-72
2021/03/23 06:03:30;;;;;;;13.90;6.00;;;3.10;89.00;;;;;;4427816;32;20221;-72
2021/03/23 06:06:37;;;;;;;15.20;6.37;;;3.20;89.70;;;;;;4426341;32;20194;-73
2021/03/23 06:09:05;;;;;;;14.50;6.77;;;3.20;89.00;;;;;;4364345;32;20529;-73
2021/03/23 06:11:41;;;;;;;15.93;6.37;;;3.30;89.20;;;;;;4363457;32;20156;-72
2021/03/23 06:14:35;;;;;;;11.43;5.83;;;3.30;89.00;;;;;;4364325;32;20400;-73
2021/03/23 06:17:05;;;;;;;13.83;6.43;;;3.40;88.60;;;;;;4365057;32;20156;-73
2021/03/23 06:19:59;;;;;;;13.83;5.73;;;3.60;88.10;;;;;;4362914;32;20161;-73
2021/03/23 06:22:54;;;;;;;12.27;5.63;;;3.50;88.40;;;;;;4365060;32;20152;-73
2021/03/23 06:26:03;;;;;;;13.77;5.97;;;3.50;88.30;;;;;;4364939;32;20206;-73
2021/03/23 06:28:33;;;;;;;11.37;5.57;;;3.40;89.20;;;;;;4304684;33;20199;-73
2021/03/23 06:31:19;;;;;;;12.73;5.63;;;3.60;89.50;;;;;;4304019;33;20212;-72
2021/03/23 06:33:45;;;;;;;13.20;5.70;;;3.60;88.90;;;;;;4305191;33;20161;-72
2021/03/23 06:36:24;;;;;;;14.37;5.70;;;3.50;89.30;;;;;;4304391;33;20437;-73
2021/03/23 06:38:51;;;;;;;12.43;5.63;;;3.40;89.90;;;;;;4305630;33;20662;-73
2021/03/23 06:41:25;;;;;;;14.43;5.80;;;3.40;90.20;;;;;;4293599;33;20276;-72
2021/03/23 06:44:12;;;;;;;12.70;5.53;;;3.40;90.30;;;;;;4305980;33;20153;-72
2021/03/23 06:46:46;;;;;;;12.20;6.07;;;3.50;90.40;;;;;;4347145;33;20175;-72
2021/03/23 06:49:13;;;;;;;16.77;6.37;;;3.50;90.50;;;;;;4364937;32;20211;-73
2021/03/23 06:52:05;;;;;;;11.90;5.77;;;3.50;90.70;;;;;;4363844;32;20204;-74
2021/03/23 06:54:37;;;;;;;12.73;5.37;;;3.60;90.90;;;;;;4362934;32;20288;-73
2021/03/23 06:57:18;;;;;;;13.93;5.57;;;3.70;90.70;;;;;;4364509;32;20459;-73
2021/03/23 06:59:59;;;;;;;13.47;5.67;;;3.80;90.60;;;;;;4408172;32;20203;-74
2021/03/23 07:02:35;;;;;;;13.83;5.70;;;3.80;90.70;;;;;;4426050;32;20143;-74
2021/03/23 07:05:17;;;;;;;15.30;5.80;;;3.90;90.80;;;;;;4426862;32;20224;-72
2021/03/23 07:08:15;;;;;;;11.83;5.07;;;4.00;90.80;;;;;;4425475;32;20215;-73
2021/03/23 07:10:54;;;;;;;13.67;5.80;;;4.10;90.60;;;;;;4426676;32;20171;-73
2021/03/23 07:13:26;;;;;;;13.83;5.30;;;4.20;90.60;;;;;;4425328;32;20180;-74
2021/03/23 07:16:11;;;;;;;11.13;5.33;;;4.20;90.70;;;;;;4424359;32;20151;-74
2021/03/23 07:18:42;;;;;;;13.37;5.20;;;4.30;90.70;;;;;;4426657;32;20182;-75
2021/03/23 07:21:37;;;;;;;14.63;5.33;;;4.40;90.40;;;;;;4426688;32;20142;-74
2021/03/23 07:24:11;;;;;;;12.63;5.27;;;4.50;90.30;;;;;;4424375;32;20163;-73
2021/03/23 07:26:54;;;;;;;16.17;5.60;;;4.50;90.40;;;;;;4424626;32;20370;-73
2021/03/23 07:29:26;;;;;;;12.73;5.40;;;4.50;90.30;;;;;;4426579;32;20159;-75
2021/03/23 07:32:06;;;;;;;13.90;5.10;;;4.50;90.50;;;;;;4424487;32;20151;-74
2021/03/23 07:34:39;;;;;;;12.83;5.20;;;4.40;90.80;;;;;;4426447;32;20166;-74
2021/03/23 07:37:17;;;;;;;14.53;5.87;;;4.50;90.80;;;;;;4425893;32;20195;-74
2021/03/23 07:39:47;;;;;;;14.20;5.27;;;4.50;90.70;;;;;;4426476;32;20190;-73
2021/03/23 07:42:34;;;;;;;11.03;5.43;;;4.60;90.80;;;;;;4423707;32;20171;-74
2021/03/23 07:45:26;;;;;;;15.03;5.50;;;4.70;90.70;;;;;;4424779;32;20429;-76
2021/03/23 07:48:11;;;;;;;12.40;5.10;;;4.70;90.60;;;;;;4425120;32;20380;-72
2021/03/23 07:50:41;;;;;;;15.17;5.50;;;4.80;90.70;;;;;;4426443;32;20217;-75
2021/03/23 07:53:39;;;;;;;12.13;5.47;;;4.80;90.50;;;;;;4424716;32;20472;-75
2021/03/23 07:56:28;;;;;;;14.53;5.03;;;4.70;90.60;;;;;;4424886;32;20205;-72
2021/03/23 07:59:14;;;;;;;11.53;5.30;;;4.60;91.10;;;;;;4424843;32;20530;-75
2021/03/23 08:01:52;;;;;;;13.20;5.37;;;4.70;91.20;;;;;;4424844;32;20143;-74
2021/03/23 08:04:45;;;;;;;11.53;4.93;;;4.80;91.20;;;;;;4424090;32;20191;-74
2021/03/23 08:07:28;;;;;;;15.00;5.27;;;4.90;91.10;;;;;;4425632;32;20183;-74
2021/03/23 08:10:20;;;;;;;11.63;5.13;;;5.00;90.50;;;;;;4424096;32;20151;-73
2021/03/23 08:13:07;;;;;;;15.37;5.47;;;5.20;90.40;;;;;;4424477;32;20178;-74
2021/03/23 08:15:40;;;;;;;12.17;5.07;;;5.40;90.70;;;;;;4424483;32;20148;-75
2021/03/23 08:18:14;;;;;;;12.63;5.50;;;5.50;90.00;;;;;;4425058;32;20256;-75
2021/03/23 08:21:01;;;;;;;14.43;5.60;;;5.70;89.80;;;;;;4425195;32;20163;-75
2021/03/23 08:24:01;;;;;;;11.93;5.40;;;5.70;89.90;;;;;;4425332;32;20214;-74
2021/03/23 08:27:03;;;;;;;12.57;5.10;;;6.40;89.30;;;;;;4425014;32;20201;-76
2021/03/23 08:30:12;;;;;;;11.50;5.20;;;6.90;83.70;;;;;;4410275;32;20509;-74
2021/03/23 08:32:53;;;;;;;14.10;5.30;;;7.10;83.40;;;;;;4425716;32;20411;-76
2021/03/23 08:35:23;;;;;;;17.30;6.33;;;7.80;81.50;;;;;;4423775;32;20526;-75
2021/03/23 08:38:09;;;;;;;12.80;5.70;;;8.30;78.80;;;;;;4424304;32;20175;-75
2021/03/23 08:41:02;;;;;;;11.50;5.53;;;8.30;77.90;;;;;;4424240;32;20151;-74
2021/03/23 08:43:37;;;;;;;12.43;5.73;;;8.80;76.00;;;;;;4424660;32;20188;-74
2021/03/23 08:46:15;;;;;;;12.87;5.73;;;8.90;76.30;;;;;;4425717;32;20142;-73
2021/03/23 08:48:56;;;;;;;10.53;4.80;;;9.20;74.90;;;;;;4424804;32;20142;-74
2021/03/23 08:51:26;;;;;;;13.73;5.47;;;9.00;74.30;;;;;;4423489;32;20168;-73
2021/03/23 08:53:55;;;;;;;15.23;5.40;;;9.50;73.00;;;;;;4423434;32;20193;-72
2021/03/23 08:56:40;;;;;;;12.30;5.20;;;9.90;71.80;;;;;;4424047;32;20143;-72
2021/03/23 08:59:38;;;;;;;9.83;4.90;;;10.40;70.00;;;;;;4425202;32;20201;-72
2021/03/23 09:02:07;;;;;;;12.00;5.20;;;10.20;70.10;;;;;;4423817;32;20181;-72
2021/03/23 09:04:50;;;;;;;13.17;5.60;;;10.10;69.10;;;;;;4426637;32;20226;-73
2021/03/23 09:07:17;;;;;;;12.57;5.63;;;10.80;68.30;;;;;;4427534;32;20204;-72
2021/03/23 09:09:52;;;;;;;11.93;5.40;;;10.70;67.70;;;;;;4425879;32;20154;-73
2021/03/23 09:12:41;;;;;;;11.90;5.57;;;10.70;66.40;;;;;;4428048;32;20147;-72
2021/03/23 09:15:17;;;;;;;12.40;5.40;;;10.70;67.10;;;;;;4428014;32;20147;-73
2021/03/23 09:18:13;;;;;;;9.90;5.40;;;10.90;66.30;;;;;;4427136;32;20209;-73
2021/03/23 09:20:40;;;;;;;12.10;5.30;;;11.40;65.40;;;;;;4427520;32;20373;-72
2021/03/23 09:23:19;;;;;;;11.70;5.43;;;11.60;63.00;;;;;;4426402;32;20139;-72
2021/03/23 09:25:52;;;;;;;14.03;5.77;;;11.30;64.20;;;;;;4426844;32;20155;-72
2021/03/23 09:28:37;;;;;;;10.97;5.60;;;11.70;62.80;;;;;;4426982;32;20147;-72
2021/03/23 09:31:12;;;;;;;11.10;5.90;;;12.30;62.60;;;;;;4426945;32;20166;-73
2021/03/23 09:33:39;;;;;;;13.13;5.77;;;12.40;61.20;;;;;;4426312;32;20165;-73
2021/03/23 09:36:09;;;;;;;12.00;5.93;;;12.40;61.70;;;;;;4425877;32;20235;-73
2021/03/23 09:39:15;;;;;;;11.13;5.60;;;12.30;62.10;;;;;;4426508;32;20155;-73
2021/03/23 09:42:08;;;;;;;12.73;5.70;;;13.00;60.90;;;;;;4425198;32;20200;-73
2021/03/23 09:44:43;;;;;;;12.30;5.43;;;13.10;59.70;;;;;;4425895;32;20166;-73
2021/03/23 09:47:42;;;;;;;11.63;5.30;;;14.10;58.20;;;;;;4426460;32;20192;-73
2021/03/23 09:50:36;;;;;;;11.80;5.37;;;14.80;55.60;;;;;;4425564;32;20373;-73
2021/03/23 09:53:09;;;;;;;10.13;5.00;;;14.90;55.10;;;;;;4425809;32;20546;-72
2021/03/23 09:55:38;;;;;;;11.60;5.07;;;14.50;55.80;;;;;;4426817;32;20193;-72
2021/03/23 09:58:13;;;;;;;11.00;5.43;;;15.30;54.20;;;;;;4427406;32;20158;-75
2021/03/23 10:00:42;;;;;;;12.27;5.33;;;13.60;56.60;;;;;;4426137;32;20385;-72
2021/03/23 10:03:20;;;;;;;10.77;5.17;;;13.70;55.40;;;;;;4426359;32;20151;-73
2021/03/23 10:06:02;;;;;;;10.70;5.00;;;13.80;57.10;;;;;;4425551;32;20197;-72
2021/03/23 10:08:32;;;;;;;10.00;4.17;;;14.10;56.40;;;;;;4426166;32;20150;-73
2021/03/23 10:11:15;;;;;;;10.43;4.50;;;14.20;54.40;;;;;;4427148;32;20165;-73
2021/03/23 10:13:52;;;;;;;10.63;4.50;;;14.10;53.90;;;;;;4425949;32;20135;-72
2021/03/23 10:16:24;;;;;;;9.97;4.70;;;13.60;54.50;;;;;;4426537;32;20138;-72
2021/03/23 10:18:51;;;;;;;8.93;4.30;;;13.50;55.90;;;;;;4425829;32;20141;-70
2021/03/23 10:21:24;;;;;;;9.77;4.53;;;13.20;55.70;;;;;;4426030;32;20185;-74
2021/03/23 10:23:57;;;;;;;11.63;4.53;;;12.90;55.70;;;;;;4426249;32;20143;-72
2021/03/23 10:26:38;;;;;;;11.23;5.20;;;12.80;57.00;;;;;;4426217;32;20207;-73
2021/03/23 10:29:40;;;;;;;11.77;5.40;;;12.70;57.70;;;;;;4425844;32;20154;-72
2021/03/23 10:32:20;;;;;;;8.63;5.07;;;12.00;58.40;;;;;;4363302;32;20171;-72
2021/03/23 10:35:05;;;;;;;10.60;5.43;;;11.30;62.00;;;;;;4363790;32;20163;-74
2021/03/23 10:37:32;;;;;;;14.23;5.33;;;11.70;61.40;;;;;;4363544;32;20156;-73
2021/03/23 10:39:59;;;;;;;13.37;5.30;;;11.60;60.90;;;;;;4363194;32;20170;-72
2021/03/23 10:42:34;;;;;;;13.47;5.70;;;11.70;60.90;;;;;;4359248;32;20465;-73
2021/03/23 10:45:37;;;;;;;12.63;5.60;;;11.30;62.90;;;;;;4357817;33;20206;-72
2021/03/23 10:48:21;;;;;;;13.60;6.17;;;11.90;61.50;;;;;;4363231;32;20211;-71
2021/03/23 10:51:20;;;;;;;12.93;5.80;;;12.00;60.60;;;;;;4363242;32;20215;-74
2021/03/23 10:54:02;;;;;;;12.10;5.70;;;12.10;60.90;;;;;;4363209;32;20194;-73
2021/03/23 10:56:32;;;;;;;11.27;5.30;;;12.40;60.80;;;;;;4362756;32;20299;-74
2021/03/23 10:59:14;;;;;;;10.07;5.40;;;12.90;58.40;;;;;;4363540;32;20249;-74
2021/03/23 11:02:02;;;;;;;13.93;5.90;;;12.60;58.80;;;;;;4363588;32;20164;-74
2021/03/23 11:04:36;;;;;;;11.77;5.33;;;13.10;58.10;;;;;;4363377;32;20153;-73
2021/03/23 11:07:24;;;;;;;11.30;5.27;;;13.60;57.70;;;;;;4351301;33;20167;-73
2021/03/23 11:09:58;;;;;;;12.77;5.63;;;13.50;57.50;;;;;;4411959;32;20161;-73
2021/03/23 11:12:26;;;;;;;14.33;5.60;;;12.80;58.90;;;;;;4425534;32;20433;-75
2021/03/23 11:14:54;;;;;;;11.63;5.40;;;12.60;59.20;;;;;;4425123;32;20173;-74
2021/03/23 11:17:24;;;;;;;12.30;5.40;;;12.60;59.30;;;;;;4426047;32;20170;-76
2021/03/23 11:19:55;;;;;;;11.90;5.37;;;12.20;60.00;;;;;;4425325;32;20174;-75
2021/03/23 11:22:29;;;;;;;11.40;5.30;;;12.20;61.50;;;;;;4426007;32;20185;-73
2021/03/23 11:24:57;;;;;;;15.30;5.90;;;12.40;60.90;;;;;;4411949;32;20169;-74
2021/03/23 11:27:28;;;;;;;14.40;5.83;;;12.60;59.80;;;;;;4424400;32;20181;-74
2021/03/23 11:29:56;;;;;;;13.10;5.47;;;12.10;60.60;;;;;;4424633;32;20185;-74
2021/03/23 11:32:24;;;;;;;8.47;4.97;;;11.90;62.40;;;;;;4425462;32;20150;-73
2021/03/23 11:34:51;;;;;;;10.33;5.33;;;12.20;61.60;;;;;;4425003;32;20138;-72
2021/03/23 11:37:18;;;;;;;13.23;5.30;;;12.40;61.40;;;;;;4424897;32;20261;-72
2021/03/23 11:39:45;;;;;;;11.30;5.40;;;12.60;60.80;;;;;;4424810;32;20220;-72
2021/03/23 11:42:30;;;;;;;13.23;5.60;;;12.30;61.10;;;;;;4426272;32;20190;-74
2021/03/23 11:45:05;;;;;;;14.23;6.10;;;12.10;61.50;;;;;;4425265;32;20406;-74
2021/03/23 11:47:44;;;;;;;11.53;5.63;;;11.40;63.50;;;;;;4424683;32;20185;-73
2021/03/23 11:50:23;;;;;;;12.73;5.40;;;11.30;64.20;;;;;;4410987;32;20151;-73
2021/03/23 11:52:52;;;;;;;10.17;5.00;;;11.70;64.90;;;;;;4425006;32;20135;-73
2021/03/23 11:55:30;;;;;;;10.43;5.23;;;12.20;63.80;;;;;;4424634;32;20162;-72
2021/03/23 11:57:57;;;;;;;12.47;5.77;;;12.60;62.30;;;;;;4425369;32;20135;-72
2021/03/23 12:00:29;;;;;;;12.37;5.47;;;12.30;61.20;;;;;;4410378;32;20581;-73
2021/03/23 12:03:01;;;;;;;13.27;6.00;;;11.90;63.40;;;;;;4424917;32;20214;-72
2021/03/23 12:05:29;;;;;;;11.00;5.70;;;11.70;63.40;;;;;;4411635;32;20154;-73
2021/03/23 12:08:08;;;;;;;10.97;5.60;;;11.50;64.50;;;;;;4424511;32;20203;-73
2021/03/23 12:10:54;;;;;;;12.27;6.00;;;11.10;65.30;;;;;;4425918;32;20198;-72
2021/03/23 12:14:01;;;;;;;9.90;5.57;;;11.30;67.20;;;;;;4424639;32;20430;-73
2021/03/23 12:16:39;;;;;;;13.03;5.90;;;11.70;66.80;;;;;;4424685;32;20224;-72
2021/03/23 12:19:22;;;;;;;15.63;5.70;;;11.30;65.70;;;;;;4425210;32;20159;-76
2021/03/23 12:21:50;;;;;;;11.87;5.73;;;10.90;67.30;;;;;;4425155;32;20414;-73
2021/03/23 12:24:21;;;;;;;15.40;5.87;;;11.10;68.00;;;;;;4424302;32;20199;-73
2021/03/23 12:26:48;;;;;;;10.30;5.57;;;10.90;68.30;;;;;;4424735;32;20174;-72
2021/03/23 12:29:14;;;;;;;12.17;5.47;;;11.30;68.70;;;;;;4424290;32;20519;-72
2021/03/23 12:31:41;;;;;;;12.80;6.15;;;11.30;67.80;;;;;;4419497;32;20054;-74
2021/03/23 12:34:08;;;;;;;14.40;5.87;;;11.60;68.70;;;;;;4423779;32;20206;-72
2021/03/23 12:36:35;;;;;;;13.87;5.70;;;11.80;66.90;;;;;;4425366;32;20155;-72
2021/03/23 12:39:03;;;;;;;10.43;4.90;;;11.50;65.90;;;;;;4427259;32;20452;-72
2021/03/23 12:41:35;;;;;;;11.43;5.00;;;11.40;65.40;;;;;;4425684;32;20984;-72
2021/03/23 12:44:02;;;;;;;10.30;4.87;;;11.00;66.80;;;;;;4426142;32;20166;-73
2021/03/23 12:46:30;;;;;;;8.83;4.13;;;11.10;66.30;;;;;;4427990;32;20171;-72
2021/03/23 12:48:58;;;;;;;10.30;3.80;;;11.30;65.40;;;;;;4429131;32;20182;-72
2021/03/23 12:51:41;;;;;;;8.57;4.00;;;11.40;64.80;;;;;;4429056;32;20528;-73
2021/03/23 12:54:23;;;;;;;6.63;3.33;;;11.30;62.90;;;;;;4428239;32;20234;-72
2021/03/23 12:56:50;;;;;;;6.77;3.33;;;11.10;62.80;;;;;;4427486;32;20154;-73
2021/03/23 12:59:24;;;;;;;8.87;3.67;;;10.90;63.00;;;;;;4428050;32;20246;-72
2021/03/23 13:01:51;;;;;;;7.83;3.87;;;11.00;63.70;;;;;;4428891;32;20155;-71
2021/03/23 13:04:23;;;;;;;8.40;4.20;;;11.10;64.30;;;;;;4428410;32;20314;-71
2021/03/23 13:06:56;;;;;;;11.13;4.40;;;11.10;64.70;;;;;;4428670;32;20154;-71
2021/03/23 13:09:25;;;;;;;10.13;4.57;;;11.00;65.90;;;;;;4428013;32;20159;-72
2021/03/23 13:11:53;;;;;;;9.73;3.67;;;10.90;65.70;;;;;;4427720;32;20187;-71
2021/03/23 13:14:23;;;;;;;6.50;2.90;;;10.80;63.70;;;;;;4428019;32;20176;-71
2021/03/23 13:16:51;;;;;;;6.60;3.20;;;10.80;63.30;;;;;;4429245;32;20151;-72
2021/03/23 13:19:19;;;;;;;9.43;3.53;;;10.70;63.10;;;;;;4428941;32;20183;-73
2021/03/23 13:22:04;;;;;;;6.67;3.73;;;10.70;63.70;;;;;;4428880;32;20548;-73